Time;durP1;ratioP1;P1;durP2;ratioP2;P2;SDS_P1;SDS_P2;PMS_P1;PMS_P2;Temp;Humidity;BMP_temperature;BMP_pressure;BME280_temperature;BME280_humidity;BME280_pressure;Samples;Min_cycle;Max_cycle;Signal;HPM_P1;HPM_P2
2021/03/26 00:02:21;;;;;;;35.40;30.87;;;7.50;99.90;;;;;;5108075;27;20589;-72
2021/03/26 00:04:47;;;;;;;35.53;30.37;;;7.50;99.90;;;;;;5107430;27;20463;-72
2021/03/26 00:07:13;;;;;;;39.70;33.07;;;7.40;99.90;;;;;;5109318;27;20489;-71
2021/03/26 00:09:40;;;;;;;39.90;32.03;;;7.40;99.90;;;;;;5107388;27;20465;-72
2021/03/26 00:12:14;;;;;;;40.90;31.90;;;7.30;99.90;;;;;;5103480;27;20464;-71
2021/03/26 00:14:42;;;;;;;49.13;34.27;;;7.30;99.90;;;;;;5108934;27;20527;-73
2021/03/26 00:17:08;;;;;;;41.80;32.53;;;7.40;99.90;;;;;;5105491;27;20473;-71
2021/03/26 00:19:35;;;;;;;38.93;32.53;;;7.40;99.90;;;;;;5109448;28;20473;-73
2021/03/26 00:22:02;;;;;;;41.70;32.80;;;7.40;99.90;;;;;;5108504;28;20492;-71
2021/03/26 00:24:28;;;;;;;43.43;34.27;;;7.40;99.90;;;;;;5106864;28;20502;-72
2021/03/26 00:26:54;;;;;;;44.40;33.47;;;7.40;99.90;;;;;;5105569;28;20487;-72
2021/03/26 00:29:22;;;;;;;41.20;31.80;;;7.40;99.90;;;;;;5110509;27;20994;-74
2021/03/26 00:31:49;;;;;;;46.33;33.50;;;7.40;99.90;;;;;;5115884;27;20933;-73
2021/03/26 00:34:17;;;;;;;42.67;33.57;;;7.40;99.90;;;;;;5116713;27;20456;-73
2021/03/26 00:36:44;;;;;;;43.93;32.60;;;7.40;99.90;;;;;;5115565;27;20461;-72
2021/03/26 00:39:11;;;;;;;42.73;33.67;;;7.40;99.90;;;;;;5112578;27;20463;-72
2021/03/26 00:41:38;;;;;;;45.60;34.50;;;7.30;99.90;;;;;;5112505;27;20487;-72
2021/03/26 00:44:05;;;;;;;44.00;33.13;;;7.20;99.90;;;;;;5118136;27;20459;-73
2021/03/26 00:46:33;;;;;;;42.80;35.20;;;7.30;99.90;;;;;;5111664;27;20456;-72
2021/03/26 00:48:59;;;;;;;46.17;34.37;;;7.20;99.90;;;;;;5121013;27;20458;-73
2021/03/26 00:51:25;;;;;;;45.80;34.53;;;7.20;99.90;;;;;;5114734;27;20473;-73
2021/03/26 00:53:52;;;;;;;48.27;36.43;;;7.20;99.90;;;;;;5121007;27;20560;-73
2021/03/26 00:56:18;;;;;;;46.87;35.10;;;7.10;99.90;;;;;;5120121;27;20468;-73
2021/03/26 00:58:44;;;;;;;45.50;36.40;;;7.20;99.90;;;;;;5117717;27;20462;-72
2021/03/26 01:01:11;;;;;;;47.23;35.97;;;7.20;99.90;;;;;;5120347;27;20776;-73
2021/03/26 01:03:39;;;;;;;50.73;35.67;;;7.20;99.90;;;;;;5119007;27;20464;-73
2021/03/26 01:06:08;;;;;;;55.07;36.17;;;7.30;99.90;;;;;;5120185;27;20467;-73
2021/03/26 01:08:35;;;;;;;54.40;35.37;;;7.20;99.90;;;;;;5116944;27;20838;-72
2021/03/26 01:11:04;;;;;;;53.27;37.67;;;7.20;99.90;;;;;;5122739;27;20453;-72
2021/03/26 01:13:32;;;;;;;44.53;35.33;;;7.20;99.90;;;;;;5121341;27;20460;-73
2021/03/26 01:15:58;;;;;;;51.10;37.97;;;7.20;99.90;;;;;;5116969;27;20470;-72
2021/03/26 01:18:28;;;;;;;54.83;36.90;;;7.20;99.90;;;;;;5117443;27;20476;-72
2021/03/26 01:20:58;;;;;;;45.30;33.80;;;7.20;99.90;;;;;;5122068;27;20545;-73
2021/03/26 01:23:24;;;;;;;48.40;37.10;;;7.20;99.90;;;;;;5120872;27;20465;-72
2021/03/26 01:25:51;;;;;;;52.00;35.10;;;7.10;99.90;;;;;;5119390;27;20459;-71
2021/03/26 01:28:20;;;;;;;49.30;35.27;;;7.10;99.90;;;;;;5120694;27;20954;-71
2021/03/26 01:30:49;;;;;;;51.70;35.70;;;7.00;99.90;;;;;;5117054;27;20532;-73
2021/03/26 01:33:17;;;;;;;52.73;37.67;;;7.00;99.90;;;;;;5117424;27;20522;-71
2021/03/26 01:35:43;;;;;;;49.33;36.53;;;7.00;99.90;;;;;;5118898;27;20803;-72
2021/03/26 01:38:11;;;;;;;45.57;36.37;;;7.00;99.90;;;;;;5120274;27;20505;-73
2021/03/26 01:40:42;;;;;;;47.63;34.97;;;6.90;99.90;;;;;;5120585;27;20829;-71
2021/03/26 01:43:12;;;;;;;49.73;35.03;;;6.90;99.90;;;;;;5112729;27;20491;-71
2021/03/26 01:45:39;;;;;;;47.30;35.70;;;7.00;99.90;;;;;;5116297;27;20463;-73
2021/03/26 01:48:07;;;;;;;46.07;36.50;;;7.00;99.90;;;;;;5113159;27;20464;-72
2021/03/26 01:50:35;;;;;;;48.20;37.63;;;7.00;99.90;;;;;;5117174;27;21149;-72
2021/03/26 01:53:02;;;;;;;50.90;37.50;;;7.00;99.90;;;;;;5111331;27;20477;-73
2021/03/26 01:55:34;;;;;;;51.33;37.10;;;7.00;99.90;;;;;;5112760;27;20466;-74
2021/03/26 01:58:01;;;;;;;51.90;35.93;;;6.90;99.90;;;;;;5114476;27;20456;-71
2021/03/26 02:00:31;;;;;;;52.57;38.20;;;6.80;99.90;;;;;;5108116;27;20830;-72
2021/03/26 02:03:04;;;;;;;52.50;36.93;;;6.70;99.90;;;;;;5118561;27;20536;-73
2021/03/26 02:05:32;;;;;;;51.47;39.07;;;6.70;99.90;;;;;;5116996;27;20964;-71
2021/03/26 02:07:58;;;;;;;53.33;38.87;;;6.80;99.90;;;;;;5114419;27;20567;-73
2021/03/26 02:10:25;;;;;;;52.17;37.97;;;6.80;99.90;;;;;;5111107;27;20970;-73
2021/03/26 02:13:00;;;;;;;52.50;37.50;;;6.90;99.90;;;;;;5117258;27;20464;-74
2021/03/26 02:15:30;;;;;;;54.27;37.70;;;6.90;99.90;;;;;;5113349;27;20465;-74
2021/03/26 02:17:56;;;;;;;52.43;37.20;;;6.80;99.90;;;;;;5111825;27;20452;-72
2021/03/26 02:20:37;;;;;;;55.20;36.80;;;6.80;99.90;;;;;;5108009;27;20459;-71
2021/03/26 02:23:08;;;;;;;50.10;35.97;;;6.80;99.90;;;;;;5105344;27;20496;-73
2021/03/26 02:25:35;;;;;;;58.33;38.77;;;6.60;99.90;;;;;;5114218;27;20565;-71
2021/03/26 02:28:02;;;;;;;49.43;38.33;;;6.60;99.90;;;;;;5114489;27;20516;-73
2021/03/26 02:30:32;;;;;;;53.80;38.80;;;6.60;99.90;;;;;;5115456;27;21026;-74
2021/03/26 02:32:59;;;;;;;60.13;39.27;;;6.60;99.90;;;;;;5117519;27;20466;-73
2021/03/26 02:35:28;;;;;;;63.57;40.23;;;6.60;99.90;;;;;;5116283;27;20464;-74
2021/03/26 02:37:59;;;;;;;53.33;38.47;;;6.60;99.90;;;;;;5110258;27;20886;-72
2021/03/26 02:40:31;;;;;;;55.90;39.50;;;6.70;99.90;;;;;;5111754;27;20487;-72
2021/03/26 02:43:09;;;;;;;57.53;40.57;;;6.70;99.90;;;;;;5108607;27;20855;-73
2021/03/26 02:45:40;;;;;;;61.13;41.10;;;6.70;99.90;;;;;;5114755;27;21011;-74
2021/03/26 02:48:15;;;;;;;54.27;40.03;;;6.60;99.90;;;;;;5118623;27;20968;-73
2021/03/26 02:50:56;;;;;;;61.00;42.30;;;6.60;99.90;;;;;;5113737;27;20459;-73
2021/03/26 02:53:27;;;;;;;65.47;43.50;;;6.60;99.90;;;;;;5115536;27;20719;-73
2021/03/26 02:56:01;;;;;;;55.13;40.70;;;6.60;99.90;;;;;;5111594;27;20457;-72
2021/03/26 02:58:33;;;;;;;60.87;42.63;;;6.60;99.90;;;;;;5105258;27;20463;-74
2021/03/26 03:01:06;;;;;;;62.37;41.17;;;6.70;99.90;;;;;;5114964;27;20462;-72
2021/03/26 03:03:34;;;;;;;58.53;41.70;;;6.70;99.90;;;;;;5113632;27;20483;-74
2021/03/26 03:06:08;;;;;;;60.13;41.27;;;6.80;99.90;;;;;;5117407;27;20555;-72
2021/03/26 03:08:37;;;;;;;56.50;41.53;;;6.80;99.90;;;;;;5118243;27;20479;-74
2021/03/26 03:11:11;;;;;;;55.80;40.20;;;6.70;99.90;;;;;;5115408;27;20453;-74
2021/03/26 03:13:41;;;;;;;63.37;42.93;;;6.70;99.90;;;;;;5114915;27;20467;-73
2021/03/26 03:16:14;;;;;;;61.90;41.70;;;6.70;99.90;;;;;;5111211;27;20461;-73
2021/03/26 03:18:45;;;;;;;64.10;41.43;;;6.70;99.90;;;;;;5117497;27;20467;-72
2021/03/26 03:21:19;;;;;;;65.10;43.60;;;6.70;99.90;;;;;;5110180;27;20471;-73
2021/03/26 03:23:51;;;;;;;62.20;43.30;;;6.70;99.90;;;;;;5115158;27;20464;-72
2021/03/26 03:26:25;;;;;;;63.37;42.60;;;6.70;99.90;;;;;;5109605;27;20491;-73
2021/03/26 03:28:59;;;;;;;55.97;41.50;;;6.60;99.90;;;;;;5118457;27;20463;-73
2021/03/26 03:31:32;;;;;;;57.70;42.30;;;6.60;99.90;;;;;;5117056;27;20462;-74
2021/03/26 03:34:13;;;;;;;57.57;42.30;;;6.50;99.90;;;;;;5112058;27;21059;-74
2021/03/26 03:36:48;;;;;;;58.13;41.07;;;6.30;99.90;;;;;;5109230;27;20461;-73
2021/03/26 03:39:22;;;;;;;54.50;38.63;;;6.40;99.90;;;;;;5110295;27;20459;-73
2021/03/26 03:41:58;;;;;;;66.70;41.93;;;6.30;99.90;;;;;;5112041;27;20597;-73
2021/03/26 03:44:32;;;;;;;57.50;40.43;;;6.20;99.90;;;;;;5116002;27;20457;-73
2021/03/26 03:47:10;;;;;;;64.73;42.13;;;6.20;99.90;;;;;;5110050;27;21388;-73
2021/03/26 03:49:43;;;;;;;54.03;39.00;;;6.10;99.90;;;;;;5116347;27;20697;-73
2021/03/26 03:52:15;;;;;;;55.83;40.37;;;6.10;99.90;;;;;;5107095;27;20457;-74
2021/03/26 03:54:49;;;;;;;58.43;41.60;;;6.00;99.90;;;;;;5115569;27;20456;-73
2021/03/26 03:57:22;;;;;;;55.03;40.30;;;5.90;99.90;;;;;;5104735;27;20461;-73
2021/03/26 03:59:53;;;;;;;61.33;43.60;;;5.70;99.90;;;;;;5114163;27;20468;-73
2021/03/26 04:02:24;;;;;;;55.20;41.63;;;5.60;99.90;;;;;;5107905;27;20495;-74
2021/03/26 04:04:57;;;;;;;52.43;38.80;;;5.40;99.90;;;;;;5110525;27;20553;-73
2021/03/26 04:07:32;;;;;;;54.97;41.40;;;5.30;99.90;;;;;;5115275;27;20497;-73
2021/03/26 04:10:07;;;;;;;64.90;42.50;;;5.30;99.90;;;;;;5108410;27;20456;-73
2021/03/26 04:12:38;;;;;;;61.83;42.37;;;5.20;99.90;;;;;;5112141;27;20460;-73
2021/03/26 04:15:12;;;;;;;55.50;42.00;;;5.20;99.90;;;;;;5113979;27;20469;-73
2021/03/26 04:17:45;;;;;;;52.00;40.90;;;5.10;99.90;;;;;;5110583;27;20470;-73
2021/03/26 04:20:19;;;;;;;55.50;41.17;;;5.10;99.90;;;;;;5107615;27;20468;-73
2021/03/26 04:22:53;;;;;;;72.03;43.43;;;5.10;99.90;;;;;;5113178;27;20487;-73
2021/03/26 04:25:24;;;;;;;54.90;40.60;;;5.10;99.90;;;;;;5111463;27;20545;-73
2021/03/26 04:28:00;;;;;;;62.70;43.87;;;5.10;99.90;;;;;;5115984;28;20822;-74
2021/03/26 04:30:29;;;;;;;67.63;42.33;;;5.10;99.90;;;;;;5111359;28;20477;-73
2021/03/26 04:32:56;;;;;;;56.70;40.63;;;5.20;99.90;;;;;;5106007;28;20972;-77
2021/03/26 04:35:25;;;;;;;57.10;41.30;;;5.20;99.90;;;;;;5108258;28;20491;-75
2021/03/26 04:38:00;;;;;;;62.50;42.57;;;5.20;99.90;;;;;;5115423;28;20464;-73
2021/03/26 04:40:31;;;;;;;59.33;41.83;;;5.30;99.90;;;;;;5120122;28;20467;-75
2021/03/26 04:43:10;;;;;;;59.23;41.70;;;5.30;99.90;;;;;;5111810;28;20750;-74
2021/03/26 04:45:51;;;;;;;59.70;40.30;;;5.20;99.90;;;;;;5113067;28;20480;-76
2021/03/26 04:48:22;;;;;;;59.37;39.70;;;5.30;99.90;;;;;;5108043;28;20841;-73
2021/03/26 04:50:58;;;;;;;59.53;41.53;;;5.30;99.90;;;;;;5107021;28;20537;-76
2021/03/26 04:53:30;;;;;;;66.33;41.37;;;5.30;99.90;;;;;;5101529;28;20513;-75
2021/03/26 04:56:01;;;;;;;60.50;41.80;;;5.30;99.90;;;;;;5108373;28;20846;-74
2021/03/26 04:58:31;;;;;;;63.40;42.87;;;5.40;99.90;;;;;;5110821;28;20465;-75
2021/03/26 05:01:02;;;;;;;55.97;40.63;;;5.30;99.90;;;;;;5110720;28;20457;-74
2021/03/26 05:03:32;;;;;;;67.43;41.07;;;5.20;99.90;;;;;;5111574;28;20579;-73
2021/03/26 05:06:04;;;;;;;66.10;43.70;;;5.20;99.90;;;;;;5112909;28;20801;-75
2021/03/26 05:08:32;;;;;;;59.33;42.30;;;5.30;99.90;;;;;;5113565;28;20995;-75
2021/03/26 05:11:01;;;;;;;63.70;41.73;;;5.30;99.90;;;;;;5111153;28;20978;-73
2021/03/26 05:13:32;;;;;;;67.20;41.07;;;5.30;99.90;;;;;;5104455;28;20877;-73
2021/03/26 05:16:05;;;;;;;68.07;42.93;;;5.30;99.90;;;;;;5121359;27;20471;-72
2021/03/26 05:18:38;;;;;;;76.47;42.90;;;5.30;99.90;;;;;;5115147;27;20480;-73
2021/03/26 05:21:10;;;;;;;58.43;41.93;;;5.20;99.90;;;;;;5117514;27;20488;-74
2021/03/26 05:23:42;;;;;;;62.10;42.20;;;5.20;99.90;;;;;;5109843;27;21148;-74
2021/03/26 05:26:09;;;;;;;59.07;41.13;;;5.20;99.90;;;;;;5119335;27;20692;-72
2021/03/26 05:28:40;;;;;;;70.53;42.67;;;5.20;99.90;;;;;;5112870;27;20464;-72
2021/03/26 05:31:11;;;;;;;61.77;43.70;;;5.10;99.90;;;;;;5116069;27;20557;-73
2021/03/26 05:33:40;;;;;;;73.73;43.80;;;5.20;99.90;;;;;;5117522;27;20456;-71
2021/03/26 05:36:12;;;;;;;68.67;45.17;;;5.20;99.90;;;;;;5115625;27;20455;-72
2021/03/26 05:38:42;;;;;;;78.63;44.07;;;5.30;99.90;;;;;;5118345;27;20467;-73
2021/03/26 05:41:34;;;;;;;70.20;42.40;;;5.30;99.90;;;;;;5117133;27;20942;-71
2021/03/26 05:44:27;;;;;;;68.70;43.00;;;5.30;99.90;;;;;;5122012;27;20827;-74
2021/03/26 05:47:09;;;;;;;62.90;41.53;;;5.40;99.90;;;;;;5109859;27;20542;-73
2021/03/26 05:49:49;;;;;;;73.73;43.17;;;5.40;99.90;;;;;;5115968;27;20952;-71
2021/03/26 05:52:31;;;;;;;64.17;40.73;;;5.40;99.90;;;;;;5112340;27;20465;-72
2021/03/26 05:55:16;;;;;;;63.70;41.00;;;5.40;99.90;;;;;;5116245;27;20552;-72
2021/03/26 05:57:51;;;;;;;70.53;43.70;;;5.40;99.90;;;;;;5114187;27;20543;-73
2021/03/26 06:00:54;;;;;;;66.77;42.83;;;5.40;99.90;;;;;;5115122;27;20459;-74
2021/03/26 06:03:59;;;;;;;80.90;43.73;;;5.50;99.90;;;;;;5118679;27;20510;-72
2021/03/26 06:06:44;;;;;;;69.83;42.43;;;5.50;99.90;;;;;;5112763;27;20975;-71
2021/03/26 06:09:34;;;;;;;72.43;44.13;;;5.60;99.90;;;;;;5097597;28;20460;-73
2021/03/26 06:12:42;;;;;;;63.27;42.23;;;5.60;99.90;;;;;;5092026;28;20462;-71
2021/03/26 06:15:33;;;;;;;65.80;43.30;;;5.70;99.90;;;;;;5098859;28;20488;-73
2021/03/26 06:18:25;;;;;;;73.90;45.60;;;5.80;99.90;;;;;;5096243;28;20445;-74
2021/03/26 06:21:12;;;;;;;72.07;43.67;;;5.90;99.90;;;;;;5089788;28;20458;-74
2021/03/26 06:23:59;;;;;;;68.63;44.33;;;5.90;99.90;;;;;;5085754;28;20913;-72
2021/03/26 06:26:37;;;;;;;70.63;43.47;;;6.00;99.90;;;;;;5096961;28;20813;-74
2021/03/26 06:29:17;;;;;;;73.60;45.27;;;6.10;99.90;;;;;;5088244;28;20466;-73
2021/03/26 06:32:19;;;;;;;66.40;45.70;;;6.20;99.90;;;;;;5093498;28;20468;-75
2021/03/26 06:35:18;;;;;;;70.40;43.90;;;6.20;99.90;;;;;;5090343;28;20453;-75
2021/03/26 06:38:04;;;;;;;70.87;45.00;;;6.30;99.90;;;;;;5094666;28;20461;-73
2021/03/26 06:40:50;;;;;;;64.90;44.20;;;6.40;99.90;;;;;;5087337;28;21610;-72
2021/03/26 06:43:43;;;;;;;69.30;44.00;;;6.50;99.90;;;;;;5093314;28;20497;-75
2021/03/26 06:46:30;;;;;;;68.03;46.07;;;6.50;99.90;;;;;;5098389;28;20453;-74
2021/03/26 06:49:05;;;;;;;62.87;44.57;;;6.60;99.90;;;;;;5093806;28;20466;-73
2021/03/26 06:51:46;;;;;;;77.73;45.63;;;6.70;99.90;;;;;;5091987;28;20485;-73
2021/03/26 06:54:33;;;;;;;81.57;45.83;;;6.80;99.90;;;;;;5097053;28;20559;-76
2021/03/26 06:57:17;;;;;;;64.20;45.73;;;6.90;99.90;;;;;;5091602;28;21034;-76
2021/03/26 07:00:06;;;;;;;67.23;46.23;;;7.00;99.90;;;;;;5093671;28;20488;-73
2021/03/26 07:03:15;;;;;;;76.27;47.57;;;7.10;99.90;;;;;;5085904;28;20922;-73
2021/03/26 07:06:16;;;;;;;66.83;46.37;;;7.20;99.90;;;;;;5036653;28;20460;-73
2021/03/26 07:09:07;;;;;;;75.77;47.10;;;7.30;99.90;;;;;;5107666;27;20486;-73
2021/03/26 07:11:51;;;;;;;62.67;47.13;;;7.40;99.90;;;;;;5105056;27;20463;-74
2021/03/26 07:14:33;;;;;;;69.03;47.90;;;7.50;99.90;;;;;;5113811;27;20470;-73
2021/03/26 07:17:28;;;;;;;64.77;46.27;;;7.60;99.90;;;;;;5104002;27;20461;-74
2021/03/26 07:20:16;;;;;;;72.70;47.00;;;7.80;99.90;;;;;;5117120;27;20475;-76
2021/03/26 07:23:29;;;;;;;74.60;47.00;;;7.80;99.90;;;;;;5105836;27;20501;-74
2021/03/26 07:26:14;;;;;;;70.57;48.10;;;7.90;99.90;;;;;;5102031;27;20469;-74
2021/03/26 07:28:56;;;;;;;66.23;45.57;;;8.00;99.90;;;;;;5115401;27;20991;-75
2021/03/26 07:31:33;;;;;;;67.07;47.60;;;8.10;99.90;;;;;;5111755;27;20472;-74
2021/03/26 07:34:19;;;;;;;72.60;46.90;;;8.20;99.90;;;;;;5114893;27;20464;-74
2021/03/26 07:36:59;;;;;;;75.03;49.73;;;8.30;99.90;;;;;;5100315;27;20541;-76
2021/03/26 07:39:43;;;;;;;71.07;49.43;;;8.50;99.90;;;;;;5099182;27;20465;-75
2021/03/26 07:42:27;;;;;;;66.60;48.80;;;8.60;99.90;;;;;;5104375;27;20484;-74
2021/03/26 07:45:20;;;;;;;76.83;48.37;;;8.70;99.90;;;;;;5109196;27;20879;-74
2021/03/26 07:48:02;;;;;;;78.30;50.00;;;8.80;99.90;;;;;;5108350;27;21053;-77
2021/03/26 07:50:42;;;;;;;62.83;45.30;;;8.90;99.90;;;;;;5109835;27;20464;-77
2021/03/26 07:53:23;;;;;;;62.27;44.47;;;9.00;99.90;;;;;;5118344;27;20541;-74
2021/03/26 07:55:54;;;;;;;57.00;44.00;;;9.20;99.90;;;;;;5108862;27;20503;-73
2021/03/26 07:58:49;;;;;;;50.20;43.80;;;9.30;99.90;;;;;;5108942;27;20480;-72
2021/03/26 08:01:39;;;;;;;57.30;44.07;;;9.40;99.90;;;;;;5109125;27;20493;-73
2021/03/26 08:04:17;;;;;;;58.13;40.03;;;9.60;99.90;;;;;;5110532;27;20469;-73
2021/03/26 08:07:25;;;;;;;55.43;41.77;;;9.70;99.90;;;;;;5110263;27;20480;-73
2021/03/26 08:10:07;;;;;;;50.80;40.07;;;9.70;99.90;;;;;;5104717;27;20790;-73
2021/03/26 08:12:44;;;;;;;42.87;36.57;;;10.00;99.90;;;;;;5106594;27;20463;-73
2021/03/26 08:15:25;;;;;;;48.10;38.70;;;10.20;99.90;;;;;;5108790;27;21020;-75
2021/03/26 08:18:05;;;;;;;43.33;35.53;;;10.30;99.90;;;;;;5114495;27;20874;-74
2021/03/26 08:20:36;;;;;;;46.40;37.47;;;10.50;99.90;;;;;;5112903;27;20459;-75
2021/03/26 08:23:29;;;;;;;39.73;35.37;;;10.50;99.90;;;;;;5111840;28;20493;-73
2021/03/26 08:26:03;;;;;;;40.70;33.00;;;10.60;99.90;;;;;;5103552;27;20478;-76
2021/03/26 08:28:46;;;;;;;35.67;31.87;;;10.80;99.90;;;;;;5104653;27;20460;-73
2021/03/26 08:31:39;;;;;;;33.13;29.73;;;10.90;99.90;;;;;;5098029;28;20551;-73
2021/03/26 08:34:23;;;;;;;34.43;30.77;;;11.10;99.90;;;;;;5099802;28;20843;-74
2021/03/26 08:36:57;;;;;;;33.53;29.93;;;11.30;99.90;;;;;;5106693;28;20472;-75
2021/03/26 08:39:32;;;;;;;31.83;28.47;;;11.40;99.90;;;;;;5099744;28;20455;-75
2021/03/26 08:42:15;;;;;;;32.63;29.40;;;11.60;99.90;;;;;;5105204;28;20463;-75
2021/03/26 08:44:43;;;;;;;31.83;28.67;;;11.60;99.90;;;;;;5097427;28;20462;-75
2021/03/26 08:47:21;;;;;;;30.10;27.17;;;11.80;99.90;;;;;;5099797;28;20538;-73
2021/03/26 08:49:52;;;;;;;27.73;25.23;;;11.90;99.90;;;;;;5097275;28;21475;-73
2021/03/26 08:52:39;;;;;;;28.50;25.70;;;12.00;99.90;;;;;;5107371;27;20473;-74
2021/03/26 08:55:34;;;;;;;28.13;25.43;;;12.10;99.90;;;;;;5110226;27;20917;-75
2021/03/26 08:58:24;;;;;;;24.73;22.27;;;12.20;99.90;;;;;;5109103;27;20456;-73
2021/03/26 09:01:30;;;;;;;25.53;23.10;;;12.30;99.90;;;;;;5104681;27;20469;-74
2021/03/26 09:04:15;;;;;;;25.13;22.60;;;12.30;99.90;;;;;;5105816;27;20499;-74
2021/03/26 09:06:57;;;;;;;26.43;23.63;;;12.40;99.90;;;;;;5112064;27;20460;-74
2021/03/26 09:09:54;;;;;;;26.30;24.00;;;12.40;99.90;;;;;;5111266;27;21319;-74
2021/03/26 09:12:38;;;;;;;26.37;23.97;;;12.50;99.90;;;;;;5111771;27;20464;-73
2021/03/26 09:15:30;;;;;;;26.23;23.50;;;12.70;99.90;;;;;;5101372;27;20943;-73
2021/03/26 09:18:05;;;;;;;25.47;23.10;;;12.80;99.90;;;;;;5103616;27;20465;-73
2021/03/26 09:20:36;;;;;;;26.83;24.23;;;12.90;99.90;;;;;;5099117;27;20464;-73
2021/03/26 09:23:40;;;;;;;24.20;22.00;;;13.00;99.90;;;;;;5108960;27;20483;-74
2021/03/26 09:26:18;;;;;;;21.50;19.60;;;13.20;99.90;;;;;;5111746;27;20831;-74
2021/03/26 09:28:52;;;;;;;21.67;19.77;;;13.20;99.90;;;;;;5112501;27;20464;-73
2021/03/26 09:31:31;;;;;;;22.60;20.63;;;13.20;99.90;;;;;;5095379;27;20469;-73
2021/03/26 09:34:00;;;;;;;23.87;21.60;;;13.30;99.90;;;;;;5092413;27;20579;-73
2021/03/26 09:36:35;;;;;;;23.03;20.60;;;13.60;99.90;;;;;;5100748;27;22021;-74
2021/03/26 09:39:06;;;;;;;22.33;20.70;;;14.00;99.90;;;;;;5107801;27;20464;-74
2021/03/26 09:41:46;;;;;;;24.47;22.37;;;14.40;99.90;;;;;;5102222;27;20514;-73
2021/03/26 09:44:26;;;;;;;23.13;21.13;;;14.80;99.90;;;;;;5107706;27;20490;-73
2021/03/26 09:46:59;;;;;;;24.13;21.60;;;15.10;99.90;;;;;;5104889;27;20448;-73
2021/03/26 09:49:31;;;;;;;22.30;20.40;;;14.90;99.90;;;;;;5107086;27;20501;-73
2021/03/26 09:52:12;;;;;;;23.83;21.67;;;15.40;99.90;;;;;;5103125;27;21034;-73
2021/03/26 09:54:40;;;;;;;23.10;21.20;;;15.50;99.90;;;;;;5106755;27;20457;-75
2021/03/26 09:57:20;;;;;;;23.27;21.07;;;15.80;99.90;;;;;;5106189;27;20649;-73
2021/03/26 09:59:59;;;;;;;21.00;19.03;;;16.20;99.90;;;;;;5103320;27;20456;-73
2021/03/26 10:02:34;;;;;;;22.13;18.33;;;16.20;99.90;;;;;;5106534;27;20495;-73
2021/03/26 10:05:12;;;;;;;18.27;16.83;;;15.90;99.90;;;;;;5101437;27;20471;-74
2021/03/26 10:07:44;;;;;;;19.60;18.00;;;16.00;99.90;;;;;;5096857;27;20655;-75
2021/03/26 10:13:07;;;;;;;20.67;19.17;;;16.00;99.90;;;;;;5111522;27;20961;-74
2021/03/26 10:15:37;;;;;;;19.30;17.70;;;16.00;99.90;;;;;;5100995;27;20463;-74
2021/03/26 10:18:09;;;;;;;19.70;18.00;;;16.80;99.90;;;;;;5103617;27;20465;-74
2021/03/26 10:20:43;;;;;;;18.87;17.40;;;16.50;99.90;;;;;;5105810;27;20461;-74
2021/03/26 10:23:27;;;;;;;20.57;18.97;;;16.30;99.90;;;;;;5106186;27;20492;-73
2021/03/26 10:26:06;;;;;;;19.73;18.23;;;16.00;99.90;;;;;;5108255;27;20977;-73
2021/03/26 10:29:04;;;;;;;20.83;19.23;;;16.30;99.90;;;;;;5115412;27;20467;-72
2021/03/26 10:31:36;;;;;;;19.53;17.80;;;16.50;99.90;;;;;;5104704;27;20461;-73
2021/03/26 10:34:04;;;;;;;21.33;19.50;;;16.50;99.90;;;;;;5109952;27;20456;-73
2021/03/26 10:36:41;;;;;;;20.33;18.20;;;16.40;99.90;;;;;;5105269;27;20463;-72
2021/03/26 10:39:12;;;;;;;18.90;17.40;;;16.50;99.90;;;;;;5104225;27;20460;-73
2021/03/26 10:42:00;;;;;;;19.30;17.70;;;16.50;99.90;;;;;;5104820;27;20537;-73
2021/03/26 10:44:44;;;;;;;19.97;18.20;;;16.70;99.90;;;;;;5108961;27;20463;-72
2021/03/26 10:47:18;;;;;;;19.47;17.57;;;17.20;99.90;;;;;;5110971;27;20974;-73
2021/03/26 10:49:49;;;;;;;19.47;18.07;;;17.40;99.90;;;;;;5102982;27;20850;-74
2021/03/26 10:52:20;;;;;;;19.67;18.07;;;17.90;99.90;;;;;;5105251;27;20788;-73
2021/03/26 10:54:51;;;;;;;19.33;17.80;;;17.60;99.90;;;;;;5103810;27;20461;-72
2021/03/26 10:57:26;;;;;;;18.93;17.67;;;17.70;99.90;;;;;;5100211;27;20489;-73
2021/03/26 11:00:03;;;;;;;19.77;17.87;;;17.50;99.90;;;;;;5103372;27;20456;-72
2021/03/26 11:02:54;;;;;;;19.70;18.30;;;18.20;99.90;;;;;;5110878;27;20475;-73
2021/03/26 11:05:27;;;;;;;19.67;17.90;;;18.50;99.90;;;;;;5109039;27;20459;-73
2021/03/26 11:08:30;;;;;;;18.97;17.63;;;18.30;99.90;;;;;;5114361;27;20487;-73
2021/03/26 11:11:06;;;;;;;19.63;17.93;;;18.70;99.90;;;;;;5112425;27;20497;-72
2021/03/26 11:14:06;;;;;;;18.90;17.60;;;18.80;99.90;;;;;;5104473;27;20507;-73
2021/03/26 11:16:38;;;;;;;18.83;17.53;;;18.10;99.90;;;;;;5102447;27;20464;-75
2021/03/26 11:19:11;;;;;;;19.13;17.83;;;18.40;99.90;;;;;;5101596;27;20484;-73
2021/03/26 11:21:43;;;;;;;20.13;18.50;;;18.50;99.90;;;;;;5107366;27;21012;-74
2021/03/26 11:24:10;;;;;;;19.33;17.40;;;17.30;99.90;;;;;;5110324;27;20488;-72
2021/03/26 11:26:42;;;;;;;20.77;19.10;;;17.30;99.90;;;;;;5100613;27;20819;-73
2021/03/26 11:29:19;;;;;;;19.73;18.33;;;17.40;99.90;;;;;;5100480;27;20506;-74
2021/03/26 11:31:53;;;;;;;18.60;17.27;;;17.60;99.90;;;;;;5109800;27;20451;-74
2021/03/26 11:34:31;;;;;;;19.20;17.90;;;17.60;99.90;;;;;;5103612;27;20464;-74
2021/03/26 11:37:12;;;;;;;18.30;16.90;;;18.10;99.90;;;;;;5103301;27;20461;-73
2021/03/26 11:39:44;;;;;;;18.60;17.07;;;18.70;99.70;;;;;;5108408;27;20850;-73
2021/03/26 11:42:42;;;;;;;18.33;16.80;;;18.90;99.60;;;;;;5103077;27;20468;-74
2021/03/26 11:45:38;;;;;;;18.50;17.20;;;19.30;99.90;;;;;;5096658;27;20465;-74
2021/03/26 11:48:37;;;;;;;18.80;17.40;;;19.90;98.60;;;;;;5083814;27;20461;-75
2021/03/26 11:51:14;;;;;;;18.10;16.90;;;18.90;98.20;;;;;;5010027;28;20550;-76
2021/03/26 11:53:46;;;;;;;19.27;17.50;;;18.40;98.70;;;;;;5087357;27;20822;-73
2021/03/26 11:56:26;;;;;;;18.43;17.17;;;18.10;99.90;;;;;;5098902;27;20468;-77
2021/03/26 11:59:10;;;;;;;17.57;16.27;;;17.50;99.90;;;;;;5107420;27;20468;-74
2021/03/26 12:01:47;;;;;;;17.97;16.70;;;17.10;99.90;;;;;;5095585;27;20981;-75
2021/03/26 12:04:20;;;;;;;19.03;17.60;;;16.90;99.90;;;;;;5091068;27;20607;-75
2021/03/26 12:06:58;;;;;;;19.23;17.77;;;17.70;99.90;;;;;;5089968;27;21010;-73
2021/03/26 12:09:32;;;;;;;19.17;17.77;;;17.70;99.90;;;;;;5100708;27;20461;-75
2021/03/26 12:12:05;;;;;;;18.77;17.10;;;17.50;99.90;;;;;;5104997;27;20467;-74
2021/03/26 12:14:46;;;;;;;18.13;17.03;;;17.60;99.90;;;;;;5100739;27;20834;-74
2021/03/26 12:17:30;;;;;;;17.47;16.43;;;18.80;99.30;;;;;;5105624;27;20928;-75
2021/03/26 12:20:00;;;;;;;18.13;16.80;;;18.90;98.40;;;;;;5105818;27;20469;-77
2021/03/26 12:22:34;;;;;;;17.17;15.73;;;18.40;99.40;;;;;;5101849;28;20491;-76
2021/03/26 12:25:09;;;;;;;16.80;15.80;;;18.60;99.20;;;;;;5101525;28;20878;-75
2021/03/26 12:27:41;;;;;;;16.93;15.83;;;18.50;98.70;;;;;;5099230;27;20492;-76
2021/03/26 12:30:14;;;;;;;17.37;16.30;;;18.10;99.10;;;;;;5101307;28;20457;-74
2021/03/26 12:32:44;;;;;;;16.30;15.10;;;18.20;98.30;;;;;;5104566;28;20460;-74
2021/03/26 12:35:27;;;;;;;17.10;15.90;;;18.40;97.70;;;;;;5104232;28;20468;-73
2021/03/26 12:38:02;;;;;;;16.13;15.10;;;18.10;97.60;;;;;;5103178;28;20464;-74
2021/03/26 12:40:47;;;;;;;17.50;16.60;;;18.10;97.80;;;;;;5101573;28;20468;-74
2021/03/26 12:43:19;;;;;;;16.80;15.90;;;18.50;97.80;;;;;;5112374;28;20488;-75
2021/03/26 12:45:55;;;;;;;16.40;15.40;;;19.00;96.30;;;;;;5110856;28;20678;-76
2021/03/26 12:48:26;;;;;;;16.10;15.10;;;19.00;97.40;;;;;;5107846;28;20464;-75
2021/03/26 12:50:56;;;;;;;18.20;17.00;;;19.40;96.90;;;;;;5109177;28;20496;-77
2021/03/26 12:53:30;;;;;;;17.80;16.40;;;19.20;95.90;;;;;;5114221;28;20463;-75
2021/03/26 12:56:12;;;;;;;16.53;15.40;;;20.20;95.20;;;;;;5108178;28;20468;-76
2021/03/26 12:59:14;;;;;;;17.30;15.93;;;20.50;94.80;;;;;;5106793;28;20544;-74
2021/03/26 13:01:48;;;;;;;17.57;16.57;;;20.20;94.80;;;;;;5097120;28;20980;-75
2021/03/26 13:04:32;;;;;;;17.73;16.67;;;19.90;94.90;;;;;;5097984;28;20503;-76
2021/03/26 13:07:04;;;;;;;16.97;15.97;;;19.40;95.20;;;;;;5101150;28;20537;-75
2021/03/26 13:09:35;;;;;;;18.43;17.10;;;18.70;96.40;;;;;;5104981;28;20475;-75
2021/03/26 13:12:07;;;;;;;16.30;15.40;;;18.80;97.20;;;;;;5106145;28;20449;-76
2021/03/26 13:14:42;;;;;;;17.37;16.27;;;19.20;96.20;;;;;;5109664;28;20955;-74
2021/03/26 13:17:18;;;;;;;17.20;16.20;;;19.20;96.40;;;;;;5105022;28;20827;-74
2021/03/26 13:19:45;;;;;;;16.50;15.50;;;19.40;97.20;;;;;;5105661;28;20500;-74
2021/03/26 13:22:23;;;;;;;16.87;15.97;;;20.10;96.40;;;;;;5111304;28;21269;-75
2021/03/26 13:25:01;;;;;;;16.43;15.37;;;20.10;94.90;;;;;;5105709;28;20460;-75